Remote, Oregon
Current Conditions -  °F | °C
As of 4:53 AM on Tuesday 21 Oct 2014 (Local Time) from KRBG Reporting Station
Overcast Overcast  
Wind Chill: 53°   Ceiling: 5500
Heat Index: 53°   Visibility: 10mi
Dew Point: 47°   Wind: 0mph
Humidity: 80%   Direction: NA
Pressure: 30"   Gusts: NA
Location:  43.01°N, 123.89°W
Report Text: KRBG 211153Z AUTO 00000KT 10SM SCT047 OVC055 12/08 A3000 RMK AO2 RAB1055E09 SLP160 P0000 60000 70020 T01170083 10128 20100 52010 $
Loading
Personal Weather Stations






























Interactive Weather Map
Tropical Storm Tracking
New forecast layout! Learn more

10-Day Weather Forecast

Advertisements
Track Severe Weather on mobile